createdAt,value
2023-05-12T00:01:44.548Z,2.00
2023-05-12T00:04:12.595Z,2.40
2023-05-12T00:06:40.615Z,1.90
2023-05-12T00:09:09.937Z,1.80
2023-05-12T00:11:38.030Z,1.43
2023-05-12T00:14:06.001Z,1.83
2023-05-12T00:16:34.009Z,2.27
2023-05-12T00:19:02.017Z,2.67
2023-05-12T00:21:30.053Z,1.80
2023-05-12T00:23:57.985Z,2.30
2023-05-12T00:26:27.618Z,1.60
2023-05-12T00:28:55.558Z,1.60
2023-05-12T00:31:23.524Z,1.67
2023-05-12T00:33:51.442Z,1.60
2023-05-12T00:36:19.386Z,1.77
2023-05-12T00:38:47.296Z,2.07
2023-05-12T00:41:15.214Z,1.90
2023-05-12T00:43:44.535Z,1.90
2023-05-12T00:46:12.537Z,2.00
2023-05-12T00:48:40.580Z,2.00
2023-05-12T00:51:08.523Z,1.83
2023-05-12T00:53:48.532Z,2.10
2023-05-12T00:56:18.448Z,1.90
2023-05-12T00:58:47.948Z,1.70
2023-05-12T01:01:16.115Z,1.43
2023-05-12T01:03:44.075Z,1.87
2023-05-12T01:06:14.315Z,1.80
2023-05-12T01:08:42.467Z,1.43
2023-05-12T01:11:10.461Z,1.57
2023-05-12T01:13:39.555Z,2.07
2023-05-12T01:16:09.618Z,1.90
2023-05-12T01:18:37.785Z,1.90
2023-05-12T01:21:05.824Z,1.63
2023-05-12T01:23:36.604Z,2.10
2023-05-12T01:26:07.004Z,2.47
2023-05-12T01:28:34.942Z,1.53
2023-05-12T01:31:02.931Z,1.90
2023-05-12T01:33:30.921Z,2.03
2023-05-12T01:35:58.856Z,1.60
2023-05-12T01:38:29.940Z,1.60
2023-05-12T01:40:57.825Z,1.90
2023-05-12T01:43:27.174Z,1.70
2023-05-12T01:45:55.127Z,1.50
2023-05-12T01:48:23.027Z,1.97
2023-05-12T01:50:50.994Z,1.60
2023-05-12T01:53:19.038Z,1.87
2023-05-12T01:55:46.979Z,1.90
2023-05-12T01:58:14.886Z,1.93
2023-05-12T02:00:44.248Z,1.37
2023-05-12T02:03:12.307Z,1.73
2023-05-12T02:05:40.273Z,1.40
2023-05-12T02:08:08.343Z,1.87
2023-05-12T02:10:36.313Z,2.10
2023-05-12T02:13:04.328Z,1.80
2023-05-12T02:15:32.492Z,1.70
2023-05-12T02:18:03.730Z,1.70
2023-05-12T02:20:31.877Z,1.87
2023-05-12T02:22:59.828Z,1.60
2023-05-12T02:25:27.773Z,1.90
2023-05-12T02:27:55.747Z,1.67
2023-05-12T02:30:23.762Z,1.67
2023-05-12T02:32:51.735Z,1.80
2023-05-12T02:35:21.557Z,1.40
2023-05-12T02:37:49.519Z,2.10
2023-05-12T02:40:17.982Z,1.63
2023-05-12T02:42:45.980Z,2.03
2023-05-12T02:45:14.279Z,1.40
2023-05-12T02:47:42.336Z,2.50
2023-05-12T02:50:10.897Z,2.17
2023-05-12T02:52:40.167Z,1.67
2023-05-12T02:55:17.606Z,1.93
2023-05-12T02:57:45.597Z,1.87
2023-05-12T03:00:17.105Z,2.00
2023-05-12T03:02:47.823Z,2.03
2023-05-12T03:05:15.745Z,1.67
2023-05-12T03:07:51.707Z,1.93
2023-05-12T03:10:20.084Z,1.70
2023-05-12T03:12:48.270Z,1.90
2023-05-12T03:15:16.536Z,2.17
2023-05-12T03:17:44.505Z,1.80
2023-05-12T03:20:13.497Z,2.07
2023-05-12T03:22:41.614Z,1.50
2023-05-12T03:25:12.807Z,2.33
2023-05-12T03:27:40.947Z,2.00
2023-05-12T03:30:10.372Z,2.23
2023-05-12T03:32:39.412Z,1.60
2023-05-12T03:35:07.762Z,1.90
2023-05-12T03:37:35.702Z,1.70
2023-05-12T03:40:03.930Z,1.90
2023-05-12T03:42:33.302Z,1.70
2023-05-12T03:45:01.307Z,1.90
2023-05-12T03:47:29.434Z,1.80
2023-05-12T03:49:57.569Z,2.10
2023-05-12T03:52:25.514Z,1.57
2023-05-12T03:54:53.694Z,1.60
2023-05-12T03:57:21.672Z,1.87
2023-05-12T03:59:50.963Z,1.50
2023-05-12T04:02:19.085Z,1.70
2023-05-12T04:04:47.028Z,1.90
2023-05-12T04:07:14.959Z,1.70
2023-05-12T04:09:44.088Z,1.60
2023-05-12T04:12:12.042Z,1.70
2023-05-12T04:14:43.220Z,2.40
2023-05-12T04:17:12.879Z,1.77
2023-05-12T04:19:40.924Z,2.10
2023-05-12T04:22:08.870Z,2.73
2023-05-12T04:24:38.237Z,1.90
2023-05-12T04:27:07.126Z,2.30
2023-05-12T04:29:35.245Z,2.10
2023-05-12T04:32:03.260Z,2.90
2023-05-12T04:34:32.558Z,2.20
2023-05-12T04:37:00.530Z,2.30
2023-05-12T04:39:29.023Z,2.30
2023-05-12T04:41:57.571Z,2.63
2023-05-12T04:44:25.537Z,2.57
2023-05-12T04:46:53.477Z,2.20
2023-05-12T04:49:21.531Z,2.30
2023-05-12T04:51:50.842Z,2.37
2023-05-12T04:54:19.030Z,2.40
2023-05-12T04:56:47.032Z,2.40
2023-05-12T04:59:16.230Z,2.30
2023-05-12T05:01:44.415Z,2.40
2023-05-12T05:04:12.497Z,2.60
2023-05-12T05:06:40.810Z,2.33
2023-05-12T05:09:10.145Z,2.40
2023-05-12T05:11:38.211Z,2.30
2023-05-12T05:14:06.207Z,2.70
2023-05-12T05:16:34.302Z,2.50
2023-05-12T05:19:06.370Z,2.20
2023-05-12T05:21:37.502Z,2.87
2023-05-12T05:24:07.158Z,2.30
2023-05-12T05:26:37.835Z,2.63
2023-05-12T05:29:06.272Z,3.23
2023-05-12T05:31:34.441Z,3.13
2023-05-12T05:34:02.503Z,3.13
2023-05-12T05:36:31.685Z,3.10
2023-05-12T05:38:59.702Z,2.97
2023-05-12T05:41:28.366Z,3.43
2023-05-12T05:43:57.632Z,2.77
2023-05-12T05:46:25.565Z,2.80
2023-05-12T05:48:53.559Z,2.60
2023-05-12T05:51:21.520Z,3.50
2023-05-12T05:53:49.456Z,3.23
2023-05-12T05:56:17.456Z,2.20
2023-05-12T05:58:45.393Z,2.87
2023-05-12T06:01:15.439Z,2.03
2023-05-12T06:03:43.493Z,2.97
2023-05-12T06:06:11.547Z,3.10
2023-05-12T06:08:39.586Z,3.17
2023-05-12T06:11:07.849Z,2.23
2023-05-12T06:13:36.405Z,2.40
2023-05-12T06:16:04.335Z,2.60
2023-05-12T06:18:37.890Z,2.80
2023-05-12T06:21:06.397Z,2.83
2023-05-12T06:23:34.386Z,2.70
2023-05-12T06:26:03.197Z,2.43
2023-05-12T06:28:31.144Z,2.47
2023-05-12T06:30:59.833Z,3.00
2023-05-12T06:33:27.838Z,2.90
2023-05-12T06:35:57.528Z,3.10
2023-05-12T06:38:25.562Z,3.00
2023-05-12T06:40:53.479Z,2.03
2023-05-12T06:43:21.479Z,2.77
2023-05-12T06:45:49.491Z,2.53
2023-05-12T06:48:17.515Z,3.83
2023-05-12T06:50:45.421Z,3.20
2023-05-12T06:53:15.100Z,2.80
2023-05-12T06:55:44.198Z,2.90
2023-05-12T06:58:12.264Z,2.67
2023-05-12T07:00:40.217Z,2.80
2023-05-12T07:03:10.331Z,2.60
2023-05-12T07:05:38.645Z,3.33
2023-05-12T07:08:06.826Z,2.30
2023-05-12T07:10:36.316Z,2.40
2023-05-12T07:13:04.305Z,2.73
2023-05-12T07:15:32.983Z,2.40
2023-05-12T07:18:01.097Z,2.60
2023-05-12T07:20:29.114Z,2.60
2023-05-12T07:22:57.081Z,3.07
2023-05-12T07:25:25.176Z,2.37
2023-05-12T07:27:54.849Z,3.17
2023-05-12T07:30:22.926Z,3.20
2023-05-12T07:32:50.956Z,2.50
2023-05-12T07:35:19.279Z,2.40
2023-05-12T07:37:47.378Z,3.40
2023-05-12T07:40:15.466Z,2.50
2023-05-12T07:42:43.519Z,2.80
2023-05-12T07:45:13.167Z,2.63
2023-05-12T07:47:41.278Z,2.20
2023-05-12T07:50:09.472Z,2.33
2023-05-12T07:52:37.554Z,2.63
2023-05-12T07:55:05.855Z,2.30
2023-05-12T07:57:33.892Z,2.40
2023-05-12T08:00:01.839Z,2.40
2023-05-12T08:02:31.238Z,2.33
2023-05-12T08:04:59.382Z,2.53
2023-05-12T08:07:27.385Z,2.73
2023-05-12T08:09:55.639Z,2.57
2023-05-12T08:12:23.590Z,2.60
2023-05-12T08:14:51.508Z,2.40
2023-05-12T08:17:19.685Z,2.37
2023-05-12T08:19:49.111Z,2.30
2023-05-12T08:22:17.261Z,2.10
2023-05-12T08:24:45.206Z,2.50
2023-05-12T08:27:13.233Z,2.20
2023-05-12T08:29:41.202Z,2.40
2023-05-12T08:32:09.155Z,2.10
2023-05-12T08:34:37.185Z,1.97
2023-05-12T08:37:06.639Z,2.30
2023-05-12T08:39:34.673Z,2.07
2023-05-12T08:42:09.375Z,2.20
2023-05-12T08:44:38.036Z,3.17
2023-05-12T08:47:06.676Z,2.23
2023-05-12T08:49:36.313Z,3.67
2023-05-12T08:52:04.416Z,2.40
2023-05-12T08:54:36.059Z,2.20
2023-05-12T08:57:09.402Z,2.30
2023-05-12T08:59:38.118Z,2.20
2023-05-12T09:02:06.541Z,3.03
2023-05-12T09:04:36.791Z,2.30
2023-05-12T09:07:05.227Z,2.63
2023-05-12T09:09:34.900Z,2.23
2023-05-12T09:12:03.111Z,2.10
2023-05-12T09:14:32.579Z,2.13
2023-05-12T09:17:02.760Z,2.13
2023-05-12T09:19:30.748Z,3.17
2023-05-12T09:21:59.112Z,2.27
2023-05-12T09:24:36.696Z,2.40
2023-05-12T09:27:05.021Z,2.33
2023-05-12T09:29:37.501Z,2.10
2023-05-12T09:32:10.327Z,1.83
2023-05-12T09:34:41.351Z,2.70
2023-05-12T09:37:10.324Z,2.50
2023-05-12T09:39:39.786Z,2.10
2023-05-12T09:42:12.805Z,2.10
2023-05-12T09:44:40.933Z,2.10
2023-05-12T09:47:10.563Z,2.10
2023-05-12T09:49:38.627Z,2.07
2023-05-12T09:52:07.147Z,2.50
2023-05-12T09:54:35.557Z,2.30
2023-05-12T09:57:05.738Z,2.43
2023-05-12T09:59:34.294Z,2.00
2023-05-12T10:02:02.906Z,2.20
2023-05-12T10:04:33.726Z,2.33
2023-05-12T10:07:01.714Z,2.13
2023-05-12T10:09:34.232Z,2.30
2023-05-12T10:12:02.175Z,2.30
2023-05-12T10:14:31.483Z,2.13
2023-05-12T10:16:59.633Z,2.20
2023-05-12T10:19:27.588Z,2.57
2023-05-12T10:21:55.809Z,2.80
2023-05-12T10:24:23.811Z,2.30
2023-05-12T10:26:51.724Z,2.30
2023-05-12T10:29:19.713Z,1.90
2023-05-12T10:31:49.194Z,2.17
2023-05-12T10:34:18.700Z,2.37
2023-05-12T10:36:50.361Z,2.50
2023-05-12T10:39:19.499Z,1.90
2023-05-12T10:41:47.428Z,2.03
2023-05-12T10:44:15.420Z,1.73
2023-05-12T10:46:43.544Z,2.43
2023-05-12T10:49:15.558Z,2.33
2023-05-12T10:51:50.539Z,2.40
2023-05-12T10:54:22.861Z,2.17
2023-05-12T10:56:51.281Z,2.00
2023-05-12T10:59:20.669Z,2.40
2023-05-12T11:02:00.039Z,2.83
2023-05-12T11:04:41.539Z,2.37
2023-05-12T11:07:10.097Z,2.60
2023-05-12T11:09:45.025Z,2.60
2023-05-12T11:12:18.679Z,2.27
2023-05-12T11:14:47.268Z,2.60
2023-05-12T11:17:15.350Z,2.20
2023-05-12T11:19:48.060Z,2.30
2023-05-12T11:22:18.476Z,2.23
2023-05-12T11:24:47.946Z,2.07
2023-05-12T11:27:16.546Z,2.27
2023-05-12T11:29:46.838Z,2.27
2023-05-12T11:32:16.638Z,2.73
2023-05-12T11:34:44.575Z,2.20
2023-05-12T11:37:13.908Z,1.93
2023-05-12T11:39:42.656Z,2.17
2023-05-12T11:42:13.469Z,2.27
2023-05-12T11:44:47.752Z,2.20
2023-05-12T11:47:16.259Z,2.23
2023-05-12T11:49:47.859Z,2.07
2023-05-12T11:52:17.169Z,1.83
2023-05-12T11:54:49.664Z,2.80
2023-05-12T11:57:26.138Z,2.03
2023-05-12T11:59:57.937Z,1.60
2023-05-12T12:02:26.213Z,2.20
2023-05-12T12:04:54.646Z,2.33
2023-05-12T12:07:32.620Z,2.40
2023-05-12T12:10:00.955Z,2.80
2023-05-12T12:12:29.108Z,2.60
2023-05-12T12:15:00.305Z,2.10
2023-05-12T12:17:30.922Z,2.80
2023-05-12T12:19:59.180Z,3.10
2023-05-12T12:22:26.957Z,2.60
2023-05-12T12:24:56.337Z,3.20
2023-05-12T12:27:24.451Z,3.43
2023-05-12T12:29:52.398Z,4.90
2023-05-12T12:32:20.350Z,4.73
2023-05-12T12:34:49.194Z,3.37
2023-05-12T12:37:17.714Z,3.60
2023-05-12T12:39:47.790Z,4.20
2023-05-12T12:42:17.349Z,4.00
2023-05-12T12:44:46.117Z,3.63
2023-05-12T12:47:14.286Z,5.00
2023-05-12T12:49:42.521Z,3.87
2023-05-12T12:52:10.492Z,3.27
2023-05-12T12:54:38.504Z,4.67
2023-05-12T12:57:06.852Z,4.07
2023-05-12T12:59:36.200Z,3.63
2023-05-12T13:02:04.229Z,3.80
2023-05-12T13:04:32.683Z,3.77
2023-05-12T13:07:00.675Z,3.53
2023-05-12T13:09:28.605Z,4.17
2023-05-12T13:11:56.576Z,3.43
2023-05-12T13:14:24.961Z,4.67
2023-05-12T13:16:55.020Z,3.50
2023-05-12T13:19:23.043Z,3.00
2023-05-12T13:21:50.986Z,2.83
2023-05-12T13:24:19.028Z,4.20
2023-05-12T13:26:47.007Z,3.20
2023-05-12T13:29:14.945Z,4.07
2023-05-12T13:31:43.812Z,4.03
2023-05-12T13:34:13.706Z,3.53
2023-05-12T13:36:41.720Z,3.60
2023-05-12T13:39:10.199Z,3.20
2023-05-12T13:41:38.299Z,3.17
2023-05-12T13:44:06.250Z,3.57
2023-05-12T13:46:34.218Z,2.90
2023-05-12T13:49:02.738Z,3.13
2023-05-12T13:51:32.450Z,3.10
2023-05-12T13:54:00.369Z,2.57
2023-05-12T13:56:28.365Z,3.53
2023-05-12T13:58:56.320Z,3.10
2023-05-12T14:01:24.368Z,3.10
2023-05-12T14:03:52.297Z,3.20
2023-05-12T14:06:20.336Z,3.20
2023-05-12T14:08:49.704Z,2.83
2023-05-12T14:11:17.980Z,2.80
2023-05-12T14:13:46.993Z,3.23
2023-05-12T14:16:15.326Z,3.07
2023-05-12T14:18:43.824Z,3.67
2023-05-12T14:21:11.983Z,3.37
2023-05-12T14:23:39.948Z,2.63
2023-05-12T14:26:09.237Z,2.83
2023-05-12T14:28:38.821Z,2.80
2023-05-12T14:31:06.938Z,2.90
2023-05-12T14:33:34.913Z,2.80
2023-05-12T14:36:07.400Z,2.83
2023-05-12T14:38:36.827Z,2.60
2023-05-12T14:41:05.393Z,2.70
2023-05-12T14:43:34.695Z,2.80
2023-05-12T14:46:02.644Z,2.83
2023-05-12T14:48:30.645Z,2.83
2023-05-12T14:50:58.663Z,2.50
2023-05-12T14:53:29.714Z,2.30
2023-05-12T14:55:57.624Z,2.90
2023-05-12T14:58:25.608Z,2.27
2023-05-12T15:00:55.255Z,3.30
2023-05-12T15:03:23.721Z,2.40
2023-05-12T15:08:22.520Z,2.57
2023-05-12T15:10:50.507Z,3.07
2023-05-12T15:13:20.436Z,2.87
2023-05-12T15:15:48.632Z,2.20
2023-05-12T15:18:18.398Z,2.20
2023-05-12T15:20:46.501Z,2.53
2023-05-12T15:23:14.468Z,2.17
2023-05-12T15:25:42.663Z,2.63
2023-05-12T15:28:10.646Z,2.70
2023-05-12T15:30:38.733Z,2.47
2023-05-12T15:33:07.031Z,2.20
2023-05-12T15:35:36.653Z,2.23
2023-05-12T15:38:04.597Z,3.17
2023-05-12T15:40:32.934Z,2.47
2023-05-12T15:43:00.823Z,2.20
2023-05-12T15:45:28.745Z,2.57
2023-05-12T15:47:56.807Z,2.90
2023-05-12T15:50:24.870Z,2.53
2023-05-12T15:52:54.199Z,2.20
2023-05-12T15:55:22.492Z,2.87
2023-05-12T15:57:51.017Z,3.00
2023-05-12T16:00:20.399Z,2.37
2023-05-12T16:02:49.874Z,2.40
2023-05-12T16:05:18.336Z,2.57
2023-05-12T16:07:46.382Z,2.30
2023-05-12T16:10:15.776Z,2.10
2023-05-12T16:12:43.734Z,2.87
2023-05-12T16:15:12.743Z,2.37
2023-05-12T16:17:41.299Z,2.60
2023-05-12T16:20:10.416Z,2.40
2023-05-12T16:22:38.909Z,2.50
2023-05-12T16:25:07.532Z,2.30
2023-05-12T16:27:36.945Z,2.60
2023-05-12T16:30:05.337Z,2.20
2023-05-12T16:32:33.395Z,2.47
2023-05-12T16:35:01.280Z,2.23
2023-05-12T16:37:29.215Z,2.10
2023-05-12T16:39:57.227Z,2.13
2023-05-12T16:42:25.381Z,1.80
2023-05-12T16:44:55.732Z,2.77
2023-05-12T16:47:23.843Z,2.20
2023-05-12T16:49:53.313Z,2.17
2023-05-12T16:52:21.281Z,2.00
2023-05-12T16:54:49.220Z,2.43
2023-05-12T16:57:17.171Z,2.47
2023-05-12T16:59:45.095Z,2.07
2023-05-12T17:02:14.544Z,2.80
2023-05-12T17:04:42.630Z,1.80
2023-05-12T17:07:10.529Z,2.17
2023-05-12T17:09:38.533Z,2.00
2023-05-12T17:12:08.009Z,2.40
2023-05-12T17:14:36.012Z,2.00
2023-05-12T17:17:04.794Z,2.00
2023-05-12T17:19:34.703Z,2.20
2023-05-12T17:22:02.728Z,2.67
2023-05-12T17:24:30.713Z,1.97
2023-05-12T17:26:58.835Z,2.17
2023-05-12T17:29:26.832Z,1.97
2023-05-12T17:31:54.963Z,1.90
2023-05-12T17:34:23.043Z,2.70
2023-05-12T17:36:52.358Z,2.00
2023-05-12T17:39:20.425Z,2.00
2023-05-12T17:41:48.370Z,2.10
2023-05-12T17:44:16.397Z,1.60
2023-05-12T17:46:44.520Z,1.77
2023-05-12T17:49:12.513Z,2.10
2023-05-12T17:51:41.884Z,1.83
2023-05-12T17:54:11.174Z,2.20
2023-05-12T17:56:39.121Z,2.00
2023-05-12T17:59:07.080Z,1.90
2023-05-12T18:01:35.157Z,2.00
2023-05-12T18:04:03.140Z,2.07
2023-05-12T18:06:32.089Z,1.80
2023-05-12T18:09:00.044Z,2.30
2023-05-12T18:11:29.706Z,2.10
2023-05-12T18:13:58.617Z,2.03
2023-05-12T18:16:29.403Z,2.37
2023-05-12T18:18:57.764Z,2.47
2023-05-12T18:21:25.810Z,1.90
2023-05-12T18:23:53.769Z,1.87
2023-05-12T18:26:21.886Z,2.07
2023-05-12T18:28:51.616Z,2.07
2023-05-12T18:31:20.118Z,2.10
2023-05-12T18:33:48.555Z,1.97
2023-05-12T18:36:17.036Z,2.00
2023-05-12T18:38:44.959Z,1.50
2023-05-12T18:41:12.912Z,2.00
2023-05-12T18:43:43.071Z,2.13
2023-05-12T18:46:12.845Z,1.97
2023-05-12T18:48:40.923Z,1.90
2023-05-12T18:51:09.571Z,1.90
2023-05-12T18:53:37.569Z,1.90
2023-05-12T18:56:05.732Z,2.30
2023-05-12T18:58:33.768Z,1.93
2023-05-12T19:01:02.142Z,2.23
2023-05-12T19:03:32.189Z,1.70
2023-05-12T19:06:00.161Z,1.77
2023-05-12T19:08:28.194Z,1.87
2023-05-12T19:10:56.183Z,1.83
2023-05-12T19:13:27.115Z,1.97
2023-05-12T19:15:55.084Z,1.80
2023-05-12T19:18:23.327Z,1.73
2023-05-12T19:20:52.686Z,1.87
2023-05-12T19:23:20.669Z,1.87
2023-05-12T19:25:48.609Z,1.87
2023-05-12T19:28:16.574Z,2.00
2023-05-12T19:30:44.436Z,1.90
2023-05-12T19:33:13.562Z,1.83
2023-05-12T19:35:42.158Z,1.77
2023-05-12T19:38:11.522Z,2.07
2023-05-12T19:40:39.501Z,2.20
2023-05-12T19:43:10.038Z,1.90
2023-05-12T19:45:38.004Z,2.33
2023-05-12T19:48:06.350Z,1.80
2023-05-12T19:50:34.338Z,2.30
2023-05-12T19:53:02.313Z,1.90
2023-05-12T19:55:31.676Z,2.10
2023-05-12T19:58:01.920Z,1.87
2023-05-12T20:00:29.955Z,1.93
2023-05-12T20:02:58.070Z,2.03
2023-05-12T20:05:26.370Z,1.80
2023-05-12T20:07:54.229Z,1.70
2023-05-12T20:10:22.185Z,1.80
2023-05-12T20:12:51.654Z,2.10
2023-05-12T20:15:19.927Z,1.87
2023-05-12T20:17:48.059Z,1.60
2023-05-12T20:20:16.026Z,1.90
2023-05-12T20:22:44.326Z,1.43
2023-05-12T20:25:16.008Z,1.60
2023-05-12T20:27:44.005Z,1.77
2023-05-12T20:30:14.167Z,1.57
2023-05-12T20:32:43.624Z,2.30
2023-05-12T20:35:11.601Z,1.90
2023-05-12T20:37:40.749Z,1.73
2023-05-12T20:40:10.798Z,1.70
2023-05-12T20:42:38.700Z,1.90
2023-05-12T20:45:07.765Z,1.93
2023-05-12T20:47:37.493Z,1.70
2023-05-12T20:50:06.307Z,1.50
2023-05-12T20:52:34.311Z,1.80
2023-05-12T20:55:02.318Z,2.10
2023-05-12T20:57:30.298Z,2.17
2023-05-12T20:59:58.239Z,2.17
2023-05-12T21:02:26.988Z,1.90
2023-05-12T21:04:56.445Z,2.40
2023-05-12T21:07:24.431Z,1.50
2023-05-12T21:09:52.456Z,1.60
2023-05-12T21:12:20.428Z,2.00
2023-05-12T21:14:48.525Z,2.00
2023-05-12T21:17:17.367Z,1.87
2023-05-12T21:19:45.460Z,1.60
2023-05-12T21:22:14.774Z,1.93
2023-05-12T21:24:42.980Z,1.77
2023-05-12T21:27:11.574Z,2.13
2023-05-12T21:29:39.542Z,2.03
2023-05-12T21:32:08.237Z,1.50
2023-05-12T21:34:36.614Z,1.93
2023-05-12T21:37:04.618Z,1.53
2023-05-12T21:39:33.945Z,1.90
2023-05-12T21:42:01.952Z,1.60
2023-05-12T21:44:29.866Z,1.83
2023-05-12T21:46:58.708Z,2.20
2023-05-12T21:49:26.879Z,1.90
2023-05-12T21:51:56.146Z,1.40
2023-05-12T21:54:24.131Z,2.03
2023-05-12T21:56:53.469Z,1.60
2023-05-12T21:59:21.755Z,1.60
2023-05-12T22:01:49.965Z,1.60
2023-05-12T22:04:17.995Z,1.90
2023-05-12T22:06:45.929Z,1.53
2023-05-12T22:09:13.832Z,1.63
2023-05-12T22:11:42.058Z,1.40
2023-05-12T22:14:11.336Z,1.80
2023-05-12T22:16:42.210Z,1.70
2023-05-12T22:19:10.832Z,1.43
2023-05-12T22:21:38.913Z,1.80
2023-05-12T22:24:07.501Z,1.70
2023-05-12T22:26:35.471Z,1.77
2023-05-12T22:29:03.356Z,1.80
2023-05-12T22:31:32.730Z,1.70
2023-05-12T22:34:00.804Z,1.80
2023-05-12T22:36:28.751Z,1.47
2023-05-12T22:38:56.639Z,1.40
2023-05-12T22:41:24.729Z,1.47
2023-05-12T22:43:52.722Z,1.90
2023-05-12T22:46:20.645Z,1.73
2023-05-12T22:48:50.916Z,1.60
2023-05-12T22:51:18.823Z,1.80
2023-05-12T22:53:46.771Z,1.60
2023-05-12T22:56:14.669Z,1.60
2023-05-12T22:58:42.708Z,1.87
2023-05-12T23:01:10.808Z,1.63
2023-05-12T23:03:38.933Z,1.50
2023-05-12T23:06:08.604Z,1.80
2023-05-12T23:08:36.527Z,1.93
2023-05-12T23:11:04.400Z,1.40
2023-05-12T23:13:32.368Z,1.50
2023-05-12T23:16:00.274Z,1.50
2023-05-12T23:18:28.226Z,1.80
2023-05-12T23:20:56.159Z,1.50
2023-05-12T23:23:25.454Z,1.83
2023-05-12T23:25:53.468Z,1.57
2023-05-12T23:28:21.366Z,1.80
2023-05-12T23:30:49.271Z,1.63
2023-05-12T23:33:17.338Z,2.00
2023-05-12T23:35:45.308Z,1.80
2023-05-12T23:38:13.213Z,1.90
2023-05-12T23:40:42.513Z,1.90
2023-05-12T23:43:10.436Z,1.70
2023-05-12T23:45:38.399Z,1.30
2023-05-12T23:48:06.861Z,1.50
2023-05-12T23:50:34.776Z,1.50
2023-05-12T23:53:02.727Z,1.33
2023-05-12T23:55:30.673Z,1.90
2023-05-12T23:58:00.226Z,1.47
